Time;durP1;ratioP1;P1;durP2;ratioP2;P2;SDS_P1;SDS_P2;PMS_P1;PMS_P2;Temp;Humidity;BMP_temperature;BMP_pressure;BME280_temperature;BME280_humidity;BME280_pressure;Samples;Min_cycle;Max_cycle;Signal;HPM_P1;HPM_P2
2022/11/19 00:01:24;;;;;;;12.33;5.13;;;;;;;-143.84;90.65;45180.47;5089964;28;20454;-73
2022/11/19 00:03:52;;;;;;;11.70;5.17;;;;;;;-143.84;90.78;45144.28;5089803;28;20437;-73
2022/11/19 00:06:21;;;;;;;12.30;5.93;;;;;;;-143.84;90.58;45180.47;5089762;28;20425;-73
2022/11/19 00:08:48;;;;;;;17.87;6.37;;;;;;;-143.84;90.44;45163.31;5089355;28;20508;-73
2022/11/19 00:12:53;;;;;;;14.73;4.73;;;;;;;-143.84;90.51;45144.28;5089306;28;21047;-73
2022/11/19 00:14:04;;;;;;;17.07;5.27;;;;;;;-143.84;90.13;45169.03;5088793;28;20474;-73
2022/11/19 00:16:32;;;;;;;14.30;5.23;;;;;;;-143.84;90.14;45159.50;5088779;28;20947;-73
2022/11/19 00:18:59;;;;;;;12.60;4.73;;;;;;;-143.84;90.01;45184.25;5089306;28;20432;-73
2022/11/19 00:21:26;;;;;;;12.23;5.47;;;;;;;-143.84;89.98;45157.59;5088605;28;20451;-73
2022/11/19 00:23:54;;;;;;;18.13;5.00;;;;;;;-143.84;90.04;45169.03;5087882;28;20439;-73
2022/11/19 00:26:21;;;;;;;11.70;4.83;;;;;;;-143.84;90.09;45191.88;5087517;28;20499;-73
2022/11/19 00:28:49;;;;;;;27.20;5.90;;;;;;;-143.84;90.12;45169.03;5087925;28;20816;-73
2022/11/19 00:31:18;;;;;;;14.77;5.60;;;;;;;-143.84;90.02;45188.06;5088572;28;20555;-73
2022/11/19 00:33:46;;;;;;;13.57;4.10;;;;;;;-143.84;90.01;45170.94;5089022;28;20448;-73
2022/11/19 00:36:15;;;;;;;21.33;5.03;;;;;;;-143.84;89.85;45178.56;5088627;28;20495;-73
2022/11/19 00:38:42;;;;;;;18.77;4.57;;;;;;;-143.84;89.82;45170.94;5089224;28;20840;-73
2022/11/19 00:41:10;;;;;;;20.03;5.77;;;;;;;-143.84;89.71;45155.69;5089296;28;20446;-73
2022/11/19 00:43:49;;;;;;;9.40;5.40;;;;;;;-143.84;89.87;45189.97;5089412;28;20443;-73
2022/11/19 00:46:19;;;;;;;9.90;4.80;;;;;;;-143.84;89.55;45169.03;5089390;28;20531;-73
2022/11/19 00:48:48;;;;;;;27.17;5.43;;;;;;;-143.84;89.27;45157.59;5089140;28;21062;-73
2022/11/19 00:51:16;;;;;;;13.97;5.33;;;;;;;-143.84;89.37;45184.25;5089260;28;20496;-73
2022/11/19 00:53:44;;;;;;;14.97;5.23;;;;;;;-143.84;89.10;45165.22;5089070;28;20458;-73
2022/11/19 00:56:12;;;;;;;10.23;5.03;;;;;;;-143.84;88.51;45170.94;5088830;28;20452;-73
2022/11/19 00:58:40;;;;;;;13.10;5.30;;;;;;;-143.84;88.34;45159.50;5092723;28;20444;-73
2022/11/19 01:01:08;;;;;;;12.07;5.17;;;;;;;-143.84;88.25;45155.69;5091181;28;20452;-73
2022/11/19 01:03:38;;;;;;;14.93;5.77;;;;;;;-143.84;87.65;45174.75;5092337;28;20493;-73
2022/11/19 01:06:05;;;;;;;11.73;5.00;;;;;;;-143.84;87.65;45163.31;5092525;28;20451;-73
2022/11/19 01:08:32;;;;;;;16.77;4.50;;;;;;;-143.84;87.27;45157.59;5092744;28;20503;-73
2022/11/19 01:11:05;;;;;;;13.70;5.70;;;;;;;-143.84;87.08;45142.38;5092229;28;20556;-73
2022/11/19 01:13:35;;;;;;;13.13;5.20;;;;;;;-143.84;86.96;45155.69;5092011;28;20442;-73
2022/11/19 01:16:04;;;;;;;15.10;6.47;;;;;;;-143.84;86.95;45165.22;5092383;28;20505;-74
2022/11/19 01:18:32;;;;;;;18.03;5.90;;;;;;;-143.84;87.01;45153.81;5091589;28;21005;-74
2022/11/19 01:21:00;;;;;;;14.67;5.90;;;;;;;-143.84;87.01;45150.00;5092819;28;20442;-73
2022/11/19 01:23:27;;;;;;;12.80;5.80;;;;;;;-143.84;87.05;45170.94;5092465;28;20941;-73
2022/11/19 01:25:55;;;;;;;13.50;5.60;;;;;;;-143.84;87.18;45163.31;5092310;28;20852;-73
2022/11/19 01:28:22;;;;;;;20.53;6.30;;;;;;;-143.84;87.32;45146.19;5092387;28;20432;-72
2022/11/19 01:30:49;;;;;;;17.90;6.10;;;;;;;-143.84;87.22;45155.69;5092191;28;20482;-73
2022/11/19 01:33:16;;;;;;;15.23;6.00;;;;;;;-143.84;87.16;45172.84;5092059;28;20445;-73
2022/11/19 01:35:43;;;;;;;18.00;7.17;;;;;;;-143.84;86.86;45180.47;5092116;28;20491;-73
2022/11/19 01:38:12;;;;;;;10.13;5.20;;;;;;;-143.84;86.85;45167.13;5092130;28;20496;-74
2022/11/19 01:40:44;;;;;;;29.13;6.33;;;;;;;-143.84;86.94;45174.75;5091762;28;20868;-74
2022/11/19 01:43:12;;;;;;;19.50;6.60;;;;;;;-143.84;87.02;45167.13;5091604;28;20440;-74
2022/11/19 01:45:41;;;;;;;19.20;6.80;;;;;;;-143.84;87.32;45169.03;5091838;28;20443;-74
2022/11/19 01:48:14;;;;;;;19.37;7.33;;;;;;;-143.84;87.30;45155.69;5091933;28;20482;-74
2022/11/19 01:50:45;;;;;;;16.80;6.90;;;;;;;-143.84;86.96;45167.13;5092078;28;20494;-73
2022/11/19 01:53:14;;;;;;;10.73;6.00;;;;;;;-143.84;87.00;45167.13;5090974;28;20552;-73
2022/11/19 01:55:43;;;;;;;24.90;6.37;;;;;;;-143.84;87.22;45212.84;5091413;28;20499;-73
2022/11/19 01:58:15;;;;;;;13.13;6.10;;;;;;;-143.84;86.88;45153.81;5091895;28;20435;-73
2022/11/19 02:00:42;;;;;;;15.23;5.50;;;;;;;-143.84;86.90;45176.66;5091640;28;20542;-77
2022/11/19 02:03:10;;;;;;;14.70;5.17;;;;;;;-143.84;86.48;45169.03;5091334;28;20435;-77
2022/11/19 02:05:37;;;;;;;16.40;7.10;;;;;;;-143.84;86.34;45161.41;5091927;28;20446;-74
2022/11/19 02:08:08;;;;;;;12.60;5.70;;;;;;;-143.84;86.12;45191.88;5090426;28;20447;-74
2022/11/19 02:10:49;;;;;;;11.80;5.53;;;;;;;-143.84;86.22;45178.56;5092599;28;20509;-73
2022/11/19 02:13:28;;;;;;;11.60;5.40;;;;;;;-143.84;86.13;45165.22;5093733;28;20504;-76
2022/11/19 02:16:02;;;;;;;15.03;5.60;;;;;;;-143.84;86.29;45148.09;5091357;28;20435;-73
2022/11/19 02:18:38;;;;;;;14.77;5.47;;;;;;;-143.84;86.04;45157.59;5091414;28;20502;-73
2022/11/19 02:21:29;;;;;;;9.43;4.70;;;;;;;-143.84;86.02;45201.41;5091310;28;20514;-73
2022/11/19 02:24:36;;;;;;;12.60;5.70;;;;;;;-143.84;85.96;45163.31;5091210;28;20517;-73
2022/11/19 02:27:41;;;;;;;14.00;6.70;;;;;;;-143.84;86.02;45174.75;5087503;28;20462;-73
2022/11/19 02:30:12;;;;;;;9.43;5.20;;;;;;;-143.84;85.68;45159.50;5090866;28;20547;-73
2022/11/19 02:32:59;;;;;;;12.87;6.20;;;;;;;-143.84;85.50;45176.66;5091957;28;20448;-74
2022/11/19 02:35:41;;;;;;;18.83;6.13;;;;;;;-143.84;85.29;45153.81;5092875;28;20436;-74
2022/11/19 02:38:18;;;;;;;9.50;5.50;;;;;;;-143.84;84.85;45176.66;5091104;28;20477;-74
2022/11/19 02:40:52;;;;;;;8.90;6.10;;;;;;;-143.84;84.80;45170.94;5090778;28;20447;-74
2022/11/19 02:43:23;;;;;;;12.47;6.10;;;;;;;-143.84;84.63;45178.56;5090682;28;20442;-74
2022/11/19 02:45:57;;;;;;;14.57;6.47;;;;;;;-143.84;84.72;45184.25;5090985;28;20961;-74
2022/11/19 02:48:28;;;;;;;8.20;6.10;;;;;;;-143.84;84.46;45189.97;5090078;28;21073;-74
2022/11/19 02:50:59;;;;;;;14.20;7.40;;;;;;;-143.84;83.95;45178.56;5089807;28;20516;-74
2022/11/19 02:53:26;;;;;;;11.70;7.80;;;;;;;-143.84;83.80;45176.66;5090361;28;20437;-74
2022/11/19 03:04:30;;;;;;;11.57;7.40;;;;;;;-143.84;82.89;45176.66;5092281;28;20431;-74
2022/11/19 03:07:01;;;;;;;19.87;8.00;;;;;;;-143.84;82.60;45184.25;5089912;28;20439;-73
2022/11/19 03:09:30;;;;;;;20.50;9.07;;;;;;;-143.84;82.36;45188.06;5091845;28;20444;-73
2022/11/19 03:12:06;;;;;;;16.20;9.23;;;;;;;-143.84;82.10;45184.25;5090860;28;20479;-74
2022/11/19 03:17:34;;;;;;;12.13;6.57;;;;;;;-143.84;81.37;45163.31;5089777;28;20429;-73
2022/11/19 03:20:06;;;;;;;12.40;6.90;;;;;;;-143.84;81.40;45176.66;5089946;28;20808;-72
2022/11/19 03:22:37;;;;;;;11.80;5.83;;;;;;;-143.84;81.07;45148.09;5090275;28;20503;-73
2022/11/19 03:25:09;;;;;;;13.43;4.77;;;;;;;-143.84;80.42;45157.59;5090606;28;20506;-73
2022/11/19 03:27:41;;;;;;;10.30;4.30;;;;;;;-143.84;80.50;45165.22;5090515;28;20462;-73
2022/11/19 03:30:10;;;;;;;4.37;3.97;;;;;;;-143.84;80.18;45157.59;5090194;28;20493;-73
2022/11/19 03:32:43;;;;;;;4.20;3.80;;;;;;;-143.84;80.28;45184.25;5089563;28;20815;-74
2022/11/19 03:35:16;;;;;;;3.00;2.80;;;;;;;-143.84;79.85;45180.47;5089552;28;20450;-73
2022/11/19 03:37:46;;;;;;;4.53;2.93;;;;;;;-143.84;79.59;45176.66;5089640;28;20443;-73
2022/11/19 03:40:16;;;;;;;3.60;3.30;;;;;;;-143.84;79.55;45176.66;5089804;28;20504;-73
2022/11/19 03:42:45;;;;;;;10.33;3.50;;;;;;;-143.84;79.29;45193.78;5089925;28;20954;-73
2022/11/19 03:45:16;;;;;;;3.93;2.90;;;;;;;-143.84;79.24;45144.28;5089881;28;20447;-73
2022/11/19 03:47:48;;;;;;;3.13;2.83;;;;;;;-143.84;78.94;45188.06;5089960;28;20487;-72
2022/11/19 03:50:24;;;;;;;7.60;3.33;;;;;;;-143.84;78.98;45153.81;5089557;28;20477;-73
2022/11/19 03:52:51;;;;;;;7.60;2.43;;;;;;;-143.84;79.11;45161.41;5090184;28;21013;-73
2022/11/19 03:55:18;;;;;;;3.50;2.40;;;;;;;-143.84;79.17;45165.22;5089858;28;20443;-73
2022/11/19 03:57:46;;;;;;;3.60;2.67;;;;;;;-143.84;78.86;45150.00;5089860;28;20449;-73
2022/11/19 04:00:14;;;;;;;2.57;2.23;;;;;;;-143.84;78.48;45180.47;5089715;28;20432;-74
2022/11/19 04:02:41;;;;;;;1.90;1.80;;;;;;;-143.84;78.68;45159.50;5090011;28;20520;-74
2022/11/19 04:05:09;;;;;;;4.60;1.83;;;;;;;-143.84;78.60;45169.03;5089920;28;20447;-73
2022/11/19 04:07:37;;;;;;;3.20;2.40;;;;;;;-143.84;78.68;45170.94;5089673;28;20439;-73
2022/11/19 04:10:04;;;;;;;2.53;1.87;;;;;;;-143.84;78.38;45189.97;5089813;28;20499;-73
2022/11/19 04:12:32;;;;;;;3.00;1.60;;;;;;;-143.84;78.31;45189.97;5089796;28;20445;-73
2022/11/19 04:14:59;;;;;;;6.50;1.80;;;;;;;-143.84;78.10;45178.56;5089225;28;20436;-73
2022/11/19 04:17:26;;;;;;;3.17;1.90;;;;;;;-143.84;77.94;45167.13;5089289;28;20443;-73
2022/11/19 04:19:53;;;;;;;2.60;1.67;;;;;;;-143.84;77.83;45144.28;5088905;28;20447;-73
2022/11/19 04:22:22;;;;;;;3.90;1.40;;;;;;;-143.84;77.89;45174.75;5089311;28;20506;-73
2022/11/19 04:24:49;;;;;;;1.63;1.53;;;;;;;-143.84;78.06;45193.78;5089444;28;20443;-73
2022/11/19 04:27:16;;;;;;;1.70;1.60;;;;;;;-143.84;78.04;45172.84;5088596;28;20826;-73
2022/11/19 04:29:43;;;;;;;2.37;1.60;;;;;;;-143.84;78.20;45159.50;5088759;28;20517;-73
2022/11/19 04:32:10;;;;;;;1.90;1.80;;;;;;;-143.84;77.80;45163.31;5090790;28;20482;-73
2022/11/19 04:34:38;;;;;;;1.93;1.80;;;;;;;-143.84;78.16;45157.59;5092520;28;20439;-73
2022/11/19 04:37:05;;;;;;;2.00;1.87;;;;;;;-143.84;78.10;45174.75;5093632;28;20450;-73
2022/11/19 04:39:33;;;;;;;3.10;1.33;;;;;;;-143.84;77.83;45186.16;5093794;28;20880;-72
2022/11/19 04:42:00;;;;;;;1.70;1.50;;;;;;;-143.84;77.91;45159.50;5093557;28;20435;-73
2022/11/19 04:44:28;;;;;;;1.67;1.57;;;;;;;-143.84;78.14;45174.75;5093323;28;20450;-73
2022/11/19 04:46:55;;;;;;;1.80;1.70;;;;;;;-143.84;78.61;45170.94;5093562;28;20581;-73
2022/11/19 04:49:22;;;;;;;1.60;1.50;;;;;;;-143.84;79.42;45136.66;5093240;28;20472;-73
2022/11/19 04:51:49;;;;;;;2.70;1.77;;;;;;;-143.84;79.51;45172.84;5093399;28;20659;-73
2022/11/19 04:54:16;;;;;;;2.00;1.80;;;;;;;-143.84;79.63;45170.94;5092780;28;20449;-73
2022/11/19 04:56:45;;;;;;;2.13;2.03;;;;;;;-143.84;79.76;45176.66;5091641;28;20451;-73
2022/11/19 04:59:12;;;;;;;5.77;1.70;;;;;;;-143.84;80.22;45167.13;5091709;28;20511;-74
2022/11/19 05:01:39;;;;;;;2.33;1.70;;;;;;;-143.84;80.82;45170.94;5092362;28;20818;-75
2022/11/19 05:04:06;;;;;;;4.27;1.43;;;;;;;-143.84;79.65;45178.56;5089226;28;20459;-73
2022/11/19 05:06:33;;;;;;;1.63;1.53;;;;;;;-143.84;78.93;45163.31;5092456;28;20446;-72
2022/11/19 05:09:00;;;;;;;2.00;1.80;;;;;;;-143.84;78.55;45155.69;5092116;28;20444;-74
2022/11/19 05:11:28;;;;;;;1.70;1.60;;;;;;;-143.84;78.81;45193.78;5091623;28;20476;-75
2022/11/19 05:13:56;;;;;;;1.73;1.63;;;;;;;-143.84;79.37;45174.75;5092599;28;20446;-75
2022/11/19 05:16:23;;;;;;;1.63;1.47;;;;;;;-143.84;79.51;45150.00;5092177;28;20892;-75
2022/11/19 05:18:50;;;;;;;2.37;2.27;;;;;;;-143.84;78.88;45157.59;5092665;28;20445;-75
2022/11/19 05:21:18;;;;;;;3.97;3.67;;;;;;;-143.84;78.46;45178.56;5091783;28;20437;-76
2022/11/19 05:23:45;;;;;;;3.67;3.00;;;;;;;-143.84;78.43;45184.25;5091825;28;20426;-75
2022/11/19 05:26:12;;;;;;;1.67;1.57;;;;;;;-143.84;77.98;45174.75;5091457;28;20497;-75
2022/11/19 05:28:39;;;;;;;2.77;2.00;;;;;;;-143.84;77.78;45172.84;5090938;28;21021;-73
2022/11/19 05:31:08;;;;;;;1.60;1.50;;;;;;;-143.84;77.06;45180.47;5082153;28;20479;-75
2022/11/19 05:33:35;;;;;;;7.03;1.93;;;;;;;-143.84;76.81;45153.81;5083740;28;20516;-75
2022/11/19 05:36:03;;;;;;;1.93;1.83;;;;;;;-143.84;76.99;45148.09;5092636;28;20439;-75
2022/11/19 05:38:30;;;;;;;2.40;2.20;;;;;;;-143.84;76.98;45174.75;5092504;28;20522;-75
2022/11/19 05:40:58;;;;;;;2.57;2.43;;;;;;;-143.84;77.19;45151.91;5092446;28;20446;-75
2022/11/19 05:43:25;;;;;;;2.20;2.10;;;;;;;-143.84;76.96;45155.69;5089941;28;20451;-75
2022/11/19 05:45:53;;;;;;;2.00;1.90;;;;;;;-143.84;76.86;45153.81;5069127;28;21166;-75
2022/11/19 05:48:21;;;;;;;2.30;2.10;;;;;;;-143.84;77.03;45155.69;5071111;28;20474;-75
2022/11/19 05:50:48;;;;;;;2.17;2.07;;;;;;;-143.84;76.87;45193.78;5089640;28;20547;-75
2022/11/19 05:53:15;;;;;;;4.37;1.90;;;;;;;-143.84;76.84;45157.59;5092378;28;21168;-75
2022/11/19 05:55:43;;;;;;;2.30;2.10;;;;;;;-143.84;76.66;45150.00;5092310;28;20472;-75
2022/11/19 05:58:10;;;;;;;2.10;1.83;;;;;;;-143.84;76.59;45169.03;5092580;28;20439;-75
2022/11/19 06:00:37;;;;;;;2.63;1.90;;;;;;;-143.84;76.36;45170.94;5092044;28;20941;-75
2022/11/19 06:03:04;;;;;;;3.43;1.83;;;;;;;-143.84;75.86;45150.00;5072177;28;20429;-75
2022/11/19 06:05:33;;;;;;;1.60;1.50;;;;;;;-143.84;75.00;45172.84;5071663;28;20437;-75
2022/11/19 06:08:00;;;;;;;2.20;2.10;;;;;;;-143.84;75.42;45148.09;5071916;28;20491;-75
2022/11/19 06:10:27;;;;;;;2.30;2.07;;;;;;;-143.84;74.85;45155.69;5071683;28;20477;-75
2022/11/19 06:12:54;;;;;;;2.80;2.60;;;;;;;-143.84;74.21;45170.94;5071507;28;20912;-75
2022/11/19 06:15:21;;;;;;;2.10;1.90;;;;;;;-143.84;72.87;45170.94;5071190;28;20953;-75
2022/11/19 06:17:49;;;;;;;2.53;2.43;;;;;;;-143.84;72.85;45167.13;5071443;28;20445;-75
2022/11/19 06:20:16;;;;;;;3.00;2.70;;;;;;;-143.84;73.39;45159.50;5071408;28;20493;-74
2022/11/19 06:22:45;;;;;;;2.57;2.43;;;;;;;-143.84;73.10;45167.13;5071116;28;20463;-75
2022/11/19 06:25:12;;;;;;;2.40;2.20;;;;;;;-143.84;72.26;45155.69;5071116;28;20499;-75
2022/11/19 06:27:40;;;;;;;2.73;2.47;;;;;;;-143.84;71.48;45148.09;5071005;28;20433;-75
2022/11/19 06:30:08;;;;;;;2.60;2.40;;;;;;;-143.84;70.43;45159.50;5071224;28;20828;-75
2022/11/19 06:32:35;;;;;;;3.53;2.23;;;;;;;-143.84;68.87;45159.50;5071044;28;20479;-75
2022/11/19 06:35:02;;;;;;;2.40;2.20;;;;;;;-143.84;68.34;45138.56;5070743;28;21258;-75
2022/11/19 06:37:30;;;;;;;2.80;2.43;;;;;;;-143.84;67.88;45146.19;5069917;28;20510;-75
2022/11/19 06:39:58;;;;;;;2.53;2.33;;;;;;;-143.84;67.10;45157.59;5070958;28;20497;-76
2022/11/19 06:42:37;;;;;;;2.70;2.50;;;;;;;-143.84;65.82;45180.47;5072181;28;20452;-75
2022/11/19 06:45:06;;;;;;;2.00;1.90;;;;;;;-143.84;63.51;45159.50;5071495;28;20444;-76
2022/11/19 06:47:34;;;;;;;2.00;1.90;;;;;;;-143.84;63.22;45132.84;5071208;28;20488;-75
2022/11/19 06:50:01;;;;;;;2.07;1.97;;;;;;;-143.84;61.26;45153.81;5082692;28;20501;-75
2022/11/19 06:52:29;;;;;;;2.80;2.20;;;;;;;-143.84;58.49;45148.09;5091740;28;20464;-75
2022/11/19 06:54:56;;;;;;;2.47;2.27;;;;;;;-143.84;57.45;45151.91;5090870;28;20445;-76
2022/11/19 06:57:26;;;;;;;3.30;1.90;;;;;;;-143.84;57.26;45119.53;5091324;28;20436;-75
2022/11/19 06:59:53;;;;;;;4.33;1.90;;;;;;;-143.84;57.37;45129.03;5090671;28;20442;-75
2022/11/19 07:02:20;;;;;;;6.00;2.50;;;;;;;-143.84;56.47;45142.38;5091551;28;20432;-76
2022/11/19 07:04:47;;;;;;;2.33;2.13;;;;;;;-143.84;56.19;45117.63;5091776;28;20861;-75
2022/11/19 07:07:14;;;;;;;7.20;2.13;;;;;;;-143.84;55.40;45132.84;5090797;28;20443;-76
2022/11/19 07:09:41;;;;;;;2.40;2.10;;;;;;;-143.84;53.93;45132.84;5090035;28;20436;-76
2022/11/19 07:12:09;;;;;;;2.47;2.30;;;;;;;-143.84;52.63;45136.66;5089527;28;20472;-76
2022/11/19 07:14:37;;;;;;;2.27;2.17;;;;;;;-143.84;51.21;45136.66;5089135;28;20459;-74
2022/11/19 07:17:05;;;;;;;2.13;1.80;;;;;;;-143.84;51.23;45130.94;5091628;28;20432;-75
2022/11/19 07:19:32;;;;;;;2.20;2.10;;;;;;;-143.84;50.16;45130.94;5091155;28;20546;-75
2022/11/19 07:21:59;;;;;;;2.87;2.00;;;;;;;-143.84;49.68;45142.38;5090359;28;20444;-73
2022/11/19 07:24:27;;;;;;;1.87;1.77;;;;;;;-143.84;49.87;45119.53;5090323;28;20521;-75
2022/11/19 07:26:55;;;;;;;3.30;1.73;;;;;;;-143.84;49.80;45110.00;5090538;28;20439;-74
2022/11/19 07:29:22;;;;;;;1.93;1.83;;;;;;;-143.84;49.93;45108.09;5090317;28;20440;-74
2022/11/19 07:31:52;;;;;;;2.40;2.30;;;;;;;-143.84;49.34;45111.91;5078732;28;20491;-77
2022/11/19 07:34:19;;;;;;;2.03;1.93;;;;;;;-143.84;49.07;45075.72;5080046;28;20448;-78
2022/11/19 07:36:48;;;;;;;2.50;2.30;;;;;;;-143.84;48.14;45121.44;5079683;28;20505;-74
2022/11/19 07:39:16;;;;;;;4.07;2.17;;;;;;;-143.84;48.20;45132.84;5083059;28;20450;-74
2022/11/19 07:44:28;;;;;;;1.57;1.47;;;;;;;-143.84;47.50;45121.44;5077841;28;20411;-78
2022/11/19 07:46:56;;;;;;;2.20;2.00;;;;;;;-143.84;47.37;45134.75;5076496;28;20458;-78
2022/11/19 07:49:24;;;;;;;2.40;2.20;;;;;;;-143.84;47.58;45146.19;5078918;28;21082;-78
2022/11/19 07:51:52;;;;;;;2.63;1.80;;;;;;;-143.84;48.99;45115.72;5082638;28;20846;-74
2022/11/19 07:54:19;;;;;;;3.77;1.90;;;;;;;-143.84;48.43;45136.66;5078149;28;20432;-74
2022/11/19 07:56:46;;;;;;;2.70;2.50;;;;;;;-143.84;47.38;45090.97;5079685;28;21310;-74
2022/11/19 07:59:14;;;;;;;2.13;2.03;;;;;;;-143.84;47.17;45121.44;5077499;28;20428;-74
2022/11/19 08:01:41;;;;;;;11.70;2.27;;;;;;;-143.84;47.35;45140.47;5079814;28;20435;-74
2022/11/19 08:04:09;;;;;;;2.13;2.03;;;;;;;-143.84;46.95;45129.03;5079962;28;20504;-74
2022/11/19 08:06:37;;;;;;;1.90;1.80;;;;;;;-143.84;47.15;45123.34;5079266;28;20537;-78
2022/11/19 08:09:06;;;;;;;1.97;1.87;;;;;;;-143.84;47.29;45106.19;5078826;28;20510;-77
2022/11/19 08:11:33;;;;;;;2.00;1.90;;;;;;;-143.84;47.99;45110.00;5079644;28;20507;-77
2022/11/19 08:14:01;;;;;;;1.97;1.87;;;;;;;-143.84;48.38;45130.94;5092467;28;20466;-75
2022/11/19 08:19:16;;;;;;;2.27;2.07;;;;;;;-143.84;48.81;45119.53;5052404;28;20439;-74
2022/11/19 08:21:45;;;;;;;2.43;2.33;;;;;;;-143.84;50.34;45119.53;5081412;28;20440;-77
2022/11/19 08:24:13;;;;;;;2.60;2.40;;;;;;;-143.84;50.14;45100.47;5077963;28;20440;-75
2022/11/19 08:26:40;;;;;;;2.50;2.23;;;;;;;-143.84;49.00;45121.44;5077974;28;20452;-76
2022/11/19 08:29:09;;;;;;;3.10;2.57;;;;;;;-143.84;48.17;45148.09;5080232;28;20429;-75
2022/11/19 08:31:36;;;;;;;2.70;2.50;;;;;;;-143.84;47.81;45151.91;5070489;28;21071;-75
2022/11/19 08:34:03;;;;;;;2.87;2.50;;;;;;;-143.84;47.69;45115.72;5084968;28;20967;-77
2022/11/19 08:36:32;;;;;;;4.90;2.20;;;;;;;-143.84;47.66;45127.13;5082814;28;20486;-77
2022/11/19 08:39:01;;;;;;;4.23;3.03;;;;;;;-143.84;47.95;45096.66;5074875;28;20453;-73
2022/11/19 08:44:13;;;;;;;3.33;2.37;;;;;;;-143.84;46.72;45092.88;5081490;28;20408;-74
2022/11/19 08:46:40;;;;;;;3.63;2.10;;;;;;;-143.84;46.18;45110.00;5079614;28;20545;-73
2022/11/19 08:49:08;;;;;;;4.33;2.23;;;;;;;-143.84;46.64;45127.13;5090199;28;20537;-76
2022/11/19 08:51:37;;;;;;;2.40;2.20;;;;;;;-143.84;46.60;45106.19;5073673;28;20441;-77
2022/11/19 08:54:05;;;;;;;2.73;2.47;;;;;;;-143.84;46.69;45104.28;5078118;28;20443;-77
2022/11/19 08:56:32;;;;;;;4.03;2.30;;;;;;;-143.84;45.82;45119.53;5078934;28;20497;-75
2022/11/19 08:58:59;;;;;;;4.40;2.63;;;;;;;-143.84;45.27;45102.38;5073302;28;20452;-77
2022/11/19 09:01:26;;;;;;;3.67;2.77;;;;;;;-143.84;45.75;45102.38;5068808;28;20433;-78
2022/11/19 09:03:53;;;;;;;6.40;2.80;;;;;;;-143.84;46.11;45102.38;5068507;28;20961;-75
2022/11/19 09:06:20;;;;;;;3.90;2.73;;;;;;;-143.84;45.97;45087.16;5068305;28;20436;-75
2022/11/19 09:08:49;;;;;;;9.23;2.97;;;;;;;-143.84;47.08;45115.72;5068232;28;21015;-74
2022/11/19 09:11:18;;;;;;;4.20;3.40;;;;;;;-143.84;47.73;45115.72;5081176;28;20463;-76
2022/11/19 09:13:45;;;;;;;6.87;2.87;;;;;;;-143.84;48.65;45115.72;5077690;28;20470;-77
2022/11/19 09:16:12;;;;;;;7.03;3.67;;;;;;;-143.84;48.99;45130.94;5081387;28;20432;-75
2022/11/19 09:18:41;;;;;;;3.30;3.00;;;;;;;-143.84;47.85;45121.44;5089941;28;20913;-75
2022/11/19 09:21:09;;;;;;;7.67;2.70;;;;;;;-143.84;47.93;45110.00;5092321;28;20821;-76
2022/11/19 09:23:37;;;;;;;7.23;3.97;;;;;;;-143.84;48.37;45121.44;5090714;28;20442;-76
2022/11/19 09:26:07;;;;;;;8.13;3.30;;;;;;;-143.84;49.50;45115.72;5082015;28;20436;-73
2022/11/19 09:28:35;;;;;;;8.77;3.90;;;;;;;-143.84;49.77;45102.38;5072359;28;20444;-73
2022/11/19 09:31:04;;;;;;;4.40;4.00;;;;;;;-143.84;49.69;45110.00;5072680;28;20437;-75
2022/11/19 09:33:32;;;;;;;5.70;4.20;;;;;;;-143.84;50.53;45089.06;5072591;28;20482;-75
2022/11/19 09:36:00;;;;;;;5.97;4.17;;;;;;;-143.84;50.46;45127.13;5086246;28;20467;-76
2022/11/19 09:38:30;;;;;;;5.00;4.57;;;;;;;-143.84;49.22;45092.88;5073108;28;20970;-75
2022/11/19 09:40:59;;;;;;;5.37;4.87;;;;;;;-143.84;49.65;45138.56;5090581;28;20459;-75
2022/11/19 09:43:41;;;;;;;8.10;4.43;;;;;;;-143.84;48.40;45110.00;5086574;28;20451;-75
2022/11/19 09:49:19;;;;;;;4.97;4.10;;;;;;;-143.84;47.37;45121.44;5080215;28;20479;-76
2022/11/19 09:51:55;;;;;;;3.87;3.43;;;;;;;-143.84;46.49;45113.81;5091795;28;20487;-75
2022/11/19 09:54:23;;;;;;;7.73;3.47;;;;;;;-143.84;46.68;45132.84;5094522;28;20439;-74
2022/11/19 09:56:54;;;;;;;3.87;3.57;;;;;;;-143.84;47.06;45108.09;5092612;28;20428;-74
2022/11/19 09:59:26;;;;;;;9.30;3.90;;;;;;;-143.84;47.08;45113.81;5091932;28;20614;-75
2022/11/19 10:01:54;;;;;;;5.80;4.30;;;;;;;-143.84;47.39;45100.47;5090733;28;20976;-76
2022/11/19 10:04:24;;;;;;;6.97;4.80;;;;;;;-143.84;47.54;45123.34;5089412;28;20515;-75
2022/11/19 10:07:05;;;;;;;4.60;4.20;;;;;;;-143.84;48.03;45115.72;5089617;28;20439;-72
2022/11/19 10:09:49;;;;;;;7.40;4.13;;;;;;;-143.84;48.89;45121.44;5090881;28;20432;-72
2022/11/19 10:12:29;;;;;;;6.00;3.37;;;;;;;-143.84;49.20;45115.72;5090402;28;20889;-73
2022/11/19 10:15:15;;;;;;;4.07;3.27;;;;;;;-143.84;49.60;45127.13;5090553;28;20471;-72
2022/11/19 10:17:54;;;;;;;3.23;2.93;;;;;;;-143.84;49.40;45117.63;5090915;28;20870;-72
2022/11/19 10:20:34;;;;;;;4.23;3.83;;;;;;;-143.84;49.65;45110.00;5093023;28;20432;-73
2022/11/19 10:23:11;;;;;;;3.50;3.00;;;;;;;-143.84;49.79;45136.66;5093116;28;20929;-72
2022/11/19 10:25:42;;;;;;;4.73;3.00;;;;;;;-143.84;49.96;45083.34;5092424;28;20452;-75
2022/11/19 10:28:13;;;;;;;7.17;3.73;;;;;;;-143.84;50.48;45125.22;5092158;28;20862;-75
2022/11/19 10:30:48;;;;;;;9.10;4.10;;;;;;;-143.84;50.16;45121.44;5091143;28;20448;-75
2022/11/19 10:33:21;;;;;;;6.40;5.20;;;;;;;-143.84;49.16;45130.94;5089966;28;20537;-75
2022/11/19 10:35:54;;;;;;;4.60;4.20;;;;;;;-143.84;49.29;45089.06;5088864;28;20435;-75
2022/11/19 10:38:24;;;;;;;4.70;4.30;;;;;;;-143.84;49.45;45125.22;5089010;28;20447;-75
2022/11/19 10:40:55;;;;;;;3.20;2.90;;;;;;;-143.84;48.06;45090.97;5090315;28;20606;-75
2022/11/19 10:43:28;;;;;;;4.00;3.70;;;;;;;-143.84;47.70;45115.72;5086898;28;21327;-75
2022/11/19 10:45:59;;;;;;;9.03;3.57;;;;;;;-143.84;46.75;45113.81;5089268;28;20557;-75
2022/11/19 10:48:37;;;;;;;6.67;3.30;;;;;;;-143.84;46.71;45085.25;5090135;28;21457;-76
2022/11/19 10:51:13;;;;;;;3.63;3.17;;;;;;;-143.84;46.21;45102.38;5089763;28;20462;-76
2022/11/19 10:53:41;;;;;;;3.57;3.37;;;;;;;-143.84;45.72;45077.63;5090185;28;20996;-76
2022/11/19 10:56:14;;;;;;;13.20;3.10;;;;;;;-143.84;45.32;45117.63;5090302;28;20501;-76
2022/11/19 10:58:47;;;;;;;3.80;3.50;;;;;;;-143.84;45.72;45096.66;5090291;28;20447;-76
2022/11/19 11:01:25;;;;;;;7.40;3.40;;;;;;;-143.84;45.93;45094.78;5089772;28;20450;-76
2022/11/19 11:04:00;;;;;;;3.00;2.80;;;;;;;-143.84;45.52;45085.25;5088943;28;20451;-76
2022/11/19 11:06:28;;;;;;;8.57;3.07;;;;;;;-143.84;44.92;45100.47;5088416;28;20448;-76
2022/11/19 11:08:56;;;;;;;3.57;2.80;;;;;;;-143.84;44.70;45075.72;5089340;28;20440;-75
2022/11/19 11:14:50;;;;;;;4.30;2.47;;;;;;;-143.84;44.05;45096.66;5089630;28;20443;-76
2022/11/19 11:17:03;;;;;;;4.73;2.70;;;;;;;-143.84;43.91;45083.34;5090163;28;20521;-76
2022/11/19 11:19:30;;;;;;;3.13;2.57;;;;;;;-143.84;43.63;45079.53;5090153;28;20879;-76
2022/11/19 11:21:58;;;;;;;3.30;3.00;;;;;;;-143.84;43.71;45081.44;5090189;28;20444;-77
2022/11/19 11:24:33;;;;;;;3.83;2.80;;;;;;;-143.84;44.00;45081.44;5089665;28;20451;-76
2022/11/19 11:27:18;;;;;;;3.60;2.70;;;;;;;-143.84;44.37;45092.88;5089495;28;20447;-76
2022/11/19 11:29:45;;;;;;;5.30;3.30;;;;;;;-143.84;45.01;45073.81;5087868;28;20480;-76
2022/11/19 11:32:28;;;;;;;6.47;2.97;;;;;;;-143.84;44.31;45092.88;5088935;28;20444;-76
2022/11/19 11:34:55;;;;;;;5.13;2.90;;;;;;;-143.84;44.71;45075.72;5088294;28;20432;-76
2022/11/19 11:37:23;;;;;;;11.13;4.03;;;;;;;-143.84;45.66;45098.56;5087969;28;20827;-76
2022/11/19 11:39:54;;;;;;;11.10;3.60;;;;;;;-143.84;44.85;45094.78;5088067;28;20523;-76
2022/11/19 11:42:25;;;;;;;6.80;3.60;;;;;;;-143.84;45.07;45104.28;5087104;28;20447;-76
2022/11/19 11:44:54;;;;;;;2.70;2.40;;;;;;;-143.84;44.95;45085.25;5087894;28;20435;-76
2022/11/19 11:47:28;;;;;;;4.40;2.87;;;;;;;-143.84;45.52;45090.97;5087789;28;20447;-76
2022/11/19 11:50:06;;;;;;;2.90;2.60;;;;;;;-143.84;45.87;45096.66;5089294;28;20440;-76
2022/11/19 11:52:37;;;;;;;8.23;3.23;;;;;;;-143.84;46.29;45104.28;5089301;28;20480;-76